sensor_id;sensor_type;location;lat;lon;timestamp;pressure;altitude;pressure_sealevel;temperature
65823;BMP180;52585;47.566;19.056;2022-08-01T00:01:39;100158.00;;;19.90
65823;BMP180;52585;47.566;19.056;2022-08-01T00:04:04;100162.80;;;19.88
65823;BMP180;52585;47.566;19.056;2022-08-01T00:06:30;100167.60;;;19.80
65823;BMP180;52585;47.566;19.056;2022-08-01T00:08:56;100166.20;;;19.80
65823;BMP180;52585;47.566;19.056;2022-08-01T00:11:22;100165.80;;;19.80
65823;BMP180;52585;47.566;19.056;2022-08-01T00:13:48;100162.80;;;19.80
65823;BMP180;52585;47.566;19.056;2022-08-01T00:16:14;100162.40;;;19.80
65823;BMP180;52585;47.566;19.056;2022-08-01T00:18:42;100161.40;;;19.80
65823;BMP180;52585;47.566;19.056;2022-08-01T00:21:07;100156.20;;;19.80
65823;BMP180;52585;47.566;19.056;2022-08-01T00:23:33;100157.00;;;19.80
65823;BMP180;52585;47.566;19.056;2022-08-01T00:25:59;100153.60;;;19.80
65823;BMP180;52585;47.566;19.056;2022-08-01T00:28:24;100154.20;;;19.80
65823;BMP180;52585;47.566;19.056;2022-08-01T00:30:50;100153.40;;;19.80
65823;BMP180;52585;47.566;19.056;2022-08-01T00:33:16;100152.80;;;19.78
65823;BMP180;52585;47.566;19.056;2022-08-01T00:35:42;100145.20;;;19.70
65823;BMP180;52585;47.566;19.056;2022-08-01T00:38:07;100146.40;;;19.70
65823;BMP180;52585;47.566;19.056;2022-08-01T00:40:33;100144.00;;;19.70
65823;BMP180;52585;47.566;19.056;2022-08-01T00:42:58;100142.20;;;19.70
65823;BMP180;52585;47.566;19.056;2022-08-01T00:45:25;100140.80;;;19.70
65823;BMP180;52585;47.566;19.056;2022-08-01T00:47:51;100144.80;;;19.70
65823;BMP180;52585;47.566;19.056;2022-08-01T00:50:17;100146.60;;;19.70
65823;BMP180;52585;47.566;19.056;2022-08-01T00:52:43;100149.00;;;19.70
65823;BMP180;52585;47.566;19.056;2022-08-01T00:55:11;100150.20;;;19.70
65823;BMP180;52585;47.566;19.056;2022-08-01T00:57:39;100151.40;;;19.70
65823;BMP180;52585;47.566;19.056;2022-08-01T01:00:08;100148.80;;;19.70
65823;BMP180;52585;47.566;19.056;2022-08-01T01:02:33;100149.80;;;19.70
65823;BMP180;52585;47.566;19.056;2022-08-01T01:05:01;100148.00;;;19.70
65823;BMP180;52585;47.566;19.056;2022-08-01T01:07:56;100150.60;;;19.70
65823;BMP180;52585;47.566;19.056;2022-08-01T01:11:03;100150.20;;;19.70
65823;BMP180;52585;47.566;19.056;2022-08-01T01:13:43;100146.80;;;19.70
65823;BMP180;52585;47.566;19.056;2022-08-01T01:16:15;100141.20;;;19.70
65823;BMP180;52585;47.566;19.056;2022-08-01T01:18:55;100143.20;;;19.70
65823;BMP180;52585;47.566;19.056;2022-08-01T01:24:37;100142.60;;;19.70
65823;BMP180;52585;47.566;19.056;2022-08-01T01:29:58;100144.40;;;19.70
65823;BMP180;52585;47.566;19.056;2022-08-01T01:32:44;100145.40;;;19.68
65823;BMP180;52585;47.566;19.056;2022-08-01T01:35:24;100147.40;;;19.70
65823;BMP180;52585;47.566;19.056;2022-08-01T01:38:03;100140.80;;;19.70
65823;BMP180;52585;47.566;19.056;2022-08-01T01:40:30;100139.40;;;19.70
65823;BMP180;52585;47.566;19.056;2022-08-01T01:42:58;100136.20;;;19.70
65823;BMP180;52585;47.566;19.056;2022-08-01T01:45:25;100132.40;;;19.70
65823;BMP180;52585;47.566;19.056;2022-08-01T01:47:53;100128.60;;;19.70
65823;BMP180;52585;47.566;19.056;2022-08-01T01:50:23;100131.40;;;19.70
65823;BMP180;52585;47.566;19.056;2022-08-01T01:52:52;100134.20;;;19.70
65823;BMP180;52585;47.566;19.056;2022-08-01T01:55:22;100132.60;;;19.70
65823;BMP180;52585;47.566;19.056;2022-08-01T01:57:51;100127.00;;;19.70
65823;BMP180;52585;47.566;19.056;2022-08-01T02:00:18;100126.00;;;19.70
65823;BMP180;52585;47.566;19.056;2022-08-01T02:02:46;100129.20;;;19.70
65823;BMP180;52585;47.566;19.056;2022-08-01T02:05:15;100124.60;;;19.70
65823;BMP180;52585;47.566;19.056;2022-08-01T02:07:42;100125.00;;;19.70
65823;BMP180;52585;47.566;19.056;2022-08-01T02:10:11;100122.60;;;19.70
65823;BMP180;52585;47.566;19.056;2022-08-01T02:12:41;100118.80;;;19.70
65823;BMP180;52585;47.566;19.056;2022-08-01T02:15:13;100119.40;;;19.70
65823;BMP180;52585;47.566;19.056;2022-08-01T02:17:47;100119.20;;;19.70
65823;BMP180;52585;47.566;19.056;2022-08-01T02:20:15;100120.60;;;19.70
65823;BMP180;52585;47.566;19.056;2022-08-01T02:23:00;100121.40;;;19.70
65823;BMP180;52585;47.566;19.056;2022-08-01T02:25:41;100117.40;;;19.70
65823;BMP180;52585;47.566;19.056;2022-08-01T02:28:32;100118.40;;;19.70
65823;BMP180;52585;47.566;19.056;2022-08-01T02:31:08;100115.80;;;19.70
65823;BMP180;52585;47.566;19.056;2022-08-01T02:33:45;100117.00;;;19.70
65823;BMP180;52585;47.566;19.056;2022-08-01T02:36:14;100122.00;;;19.70
65823;BMP180;52585;47.566;19.056;2022-08-01T02:38:45;100122.60;;;19.70
65823;BMP180;52585;47.566;19.056;2022-08-01T02:41:19;100122.20;;;19.70
65823;BMP180;52585;47.566;19.056;2022-08-01T02:43:50;100119.20;;;19.70
65823;BMP180;52585;47.566;19.056;2022-08-01T02:46:28;100119.80;;;19.70
65823;BMP180;52585;47.566;19.056;2022-08-01T02:48:58;100119.00;;;19.70
65823;BMP180;52585;47.566;19.056;2022-08-01T02:51:29;100119.80;;;19.70
65823;BMP180;52585;47.566;19.056;2022-08-01T02:53:58;100115.00;;;19.70
65823;BMP180;52585;47.566;19.056;2022-08-01T02:56:28;100113.80;;;19.70
65823;BMP180;52585;47.566;19.056;2022-08-01T02:59:15;100111.60;;;19.70
65823;BMP180;52585;47.566;19.056;2022-08-01T03:01:45;100110.40;;;19.70
65823;BMP180;52585;47.566;19.056;2022-08-01T03:04:14;100107.80;;;19.70
65823;BMP180;52585;47.566;19.056;2022-08-01T03:06:42;100106.40;;;19.70
65823;BMP180;52585;47.566;19.056;2022-08-01T03:09:09;100105.40;;;19.70
65823;BMP180;52585;47.566;19.056;2022-08-01T03:11:40;100104.20;;;19.70
65823;BMP180;52585;47.566;19.056;2022-08-01T03:14:09;100102.80;;;19.70
65823;BMP180;52585;47.566;19.056;2022-08-01T03:16:41;100105.80;;;19.70
65823;BMP180;52585;47.566;19.056;2022-08-01T03:19:11;100106.40;;;19.70
65823;BMP180;52585;47.566;19.056;2022-08-01T03:21:39;100113.60;;;19.70
65823;BMP180;52585;47.566;19.056;2022-08-01T03:24:09;100108.60;;;19.70
65823;BMP180;52585;47.566;19.056;2022-08-01T03:26:39;100104.00;;;19.70
65823;BMP180;52585;47.566;19.056;2022-08-01T03:29:14;100102.20;;;19.68
65823;BMP180;52585;47.566;19.056;2022-08-01T03:31:45;100099.80;;;19.60
65823;BMP180;52585;47.566;19.056;2022-08-01T03:34:12;100100.40;;;19.60
65823;BMP180;52585;47.566;19.056;2022-08-01T03:36:54;100094.00;;;19.60
65823;BMP180;52585;47.566;19.056;2022-08-01T03:39:29;100098.60;;;19.60
65823;BMP180;52585;47.566;19.056;2022-08-01T03:42:03;100098.00;;;19.60
65823;BMP180;52585;47.566;19.056;2022-08-01T03:44:35;100096.60;;;19.60
65823;BMP180;52585;47.566;19.056;2022-08-01T03:47:08;100100.60;;;19.60
65823;BMP180;52585;47.566;19.056;2022-08-01T03:49:42;100100.40;;;19.60
65823;BMP180;52585;47.566;19.056;2022-08-01T03:52:09;100105.00;;;19.60
65823;BMP180;52585;47.566;19.056;2022-08-01T03:54:45;100107.20;;;19.60
65823;BMP180;52585;47.566;19.056;2022-08-01T03:57:13;100115.20;;;19.60
65823;BMP180;52585;47.566;19.056;2022-08-01T03:59:41;100116.80;;;19.60
65823;BMP180;52585;47.566;19.056;2022-08-01T04:02:09;100117.00;;;19.60
65823;BMP180;52585;47.566;19.056;2022-08-01T04:04:36;100122.60;;;19.60
65823;BMP180;52585;47.566;19.056;2022-08-01T04:07:03;100123.00;;;19.60
65823;BMP180;52585;47.566;19.056;2022-08-01T04:09:33;100127.60;;;19.60
65823;BMP180;52585;47.566;19.056;2022-08-01T04:12:00;100134.20;;;19.60
65823;BMP180;52585;47.566;19.056;2022-08-01T04:14:29;100131.20;;;19.60
65823;BMP180;52585;47.566;19.056;2022-08-01T04:16:55;100133.40;;;19.60
65823;BMP180;52585;47.566;19.056;2022-08-01T04:19:22;100131.80;;;19.60
65823;BMP180;52585;47.566;19.056;2022-08-01T04:21:49;100130.60;;;19.60
65823;BMP180;52585;47.566;19.056;2022-08-01T04:24:18;100132.60;;;19.60
65823;BMP180;52585;47.566;19.056;2022-08-01T04:26:47;100130.40;;;19.62
65823;BMP180;52585;47.566;19.056;2022-08-01T04:29:17;100132.60;;;19.62
65823;BMP180;52585;47.566;19.056;2022-08-01T04:31:48;100132.60;;;19.62
65823;BMP180;52585;47.566;19.056;2022-08-01T04:34:20;100125.60;;;19.62
65823;BMP180;52585;47.566;19.056;2022-08-01T04:36:48;100129.20;;;19.68
65823;BMP180;52585;47.566;19.056;2022-08-01T04:39:18;100124.60;;;19.64
65823;BMP180;52585;47.566;19.056;2022-08-01T04:41:47;100125.00;;;19.70
65823;BMP180;52585;47.566;19.056;2022-08-01T04:44:14;100125.80;;;19.70
65823;BMP180;52585;47.566;19.056;2022-08-01T04:46:41;100129.20;;;19.70
65823;BMP180;52585;47.566;19.056;2022-08-01T04:49:07;100131.60;;;19.70
65823;BMP180;52585;47.566;19.056;2022-08-01T04:51:35;100133.60;;;19.70
65823;BMP180;52585;47.566;19.056;2022-08-01T04:54:01;100133.40;;;19.70
65823;BMP180;52585;47.566;19.056;2022-08-01T04:56:27;100132.60;;;19.70
65823;BMP180;52585;47.566;19.056;2022-08-01T04:58:53;100132.00;;;19.70
65823;BMP180;52585;47.566;19.056;2022-08-01T05:01:38;100132.40;;;19.70
65823;BMP180;52585;47.566;19.056;2022-08-01T05:04:04;100133.80;;;19.72
65823;BMP180;52585;47.566;19.056;2022-08-01T05:06:30;100133.20;;;19.80
65823;BMP180;52585;47.566;19.056;2022-08-01T05:08:56;100133.60;;;19.80
65823;BMP180;52585;47.566;19.056;2022-08-01T05:11:22;100130.20;;;19.80
65823;BMP180;52585;47.566;19.056;2022-08-01T05:13:48;100131.40;;;19.82
65823;BMP180;52585;47.566;19.056;2022-08-01T05:16:15;100136.20;;;19.90
65823;BMP180;52585;47.566;19.056;2022-08-01T05:18:42;100131.40;;;19.90
65823;BMP180;52585;47.566;19.056;2022-08-01T05:21:08;100129.60;;;19.90
65823;BMP180;52585;47.566;19.056;2022-08-01T05:23:34;100134.20;;;19.90
65823;BMP180;52585;47.566;19.056;2022-08-01T05:26:02;100132.60;;;20.00
65823;BMP180;52585;47.566;19.056;2022-08-01T05:28:30;100136.60;;;20.00
65823;BMP180;52585;47.566;19.056;2022-08-01T05:30:56;100137.20;;;20.00
65823;BMP180;52585;47.566;19.056;2022-08-01T05:33:22;100135.00;;;20.00
65823;BMP180;52585;47.566;19.056;2022-08-01T05:35:48;100137.80;;;20.00
65823;BMP180;52585;47.566;19.056;2022-08-01T05:38:15;100136.80;;;20.04
65823;BMP180;52585;47.566;19.056;2022-08-01T05:40:42;100134.00;;;20.10
65823;BMP180;52585;47.566;19.056;2022-08-01T05:43:08;100138.40;;;20.10
65823;BMP180;52585;47.566;19.056;2022-08-01T05:45:34;100136.60;;;20.10
65823;BMP180;52585;47.566;19.056;2022-08-01T05:48:01;100136.20;;;20.10
65823;BMP180;52585;47.566;19.056;2022-08-01T05:50:27;100136.60;;;20.10
65823;BMP180;52585;47.566;19.056;2022-08-01T05:52:54;100135.60;;;20.12
65823;BMP180;52585;47.566;19.056;2022-08-01T05:55:21;100138.20;;;20.20
65823;BMP180;52585;47.566;19.056;2022-08-01T05:57:47;100139.20;;;20.20
65823;BMP180;52585;47.566;19.056;2022-08-01T06:00:14;100139.60;;;20.20
65823;BMP180;52585;47.566;19.056;2022-08-01T06:02:45;100138.80;;;20.22
65823;BMP180;52585;47.566;19.056;2022-08-01T06:05:11;100136.80;;;20.30
65823;BMP180;52585;47.566;19.056;2022-08-01T06:07:37;100138.20;;;20.30
65823;BMP180;52585;47.566;19.056;2022-08-01T06:10:05;100140.00;;;20.32
65823;BMP180;52585;47.566;19.056;2022-08-01T06:12:33;100143.20;;;20.40
65823;BMP180;52585;47.566;19.056;2022-08-01T06:14:59;100141.60;;;20.48
65823;BMP180;52585;47.566;19.056;2022-08-01T06:17:25;100141.20;;;20.50
65823;BMP180;52585;47.566;19.056;2022-08-01T06:19:51;100147.20;;;20.60
65823;BMP180;52585;47.566;19.056;2022-08-01T06:22:17;100145.60;;;20.70
65823;BMP180;52585;47.566;19.056;2022-08-01T06:24:44;100149.20;;;20.78
65823;BMP180;52585;47.566;19.056;2022-08-01T06:27:09;100148.00;;;20.80
65823;BMP180;52585;47.566;19.056;2022-08-01T06:29:36;100146.60;;;20.90
65823;BMP180;52585;47.566;19.056;2022-08-01T06:32:02;100147.20;;;21.00
65823;BMP180;52585;47.566;19.056;2022-08-01T06:34:30;100144.80;;;21.00
65823;BMP180;52585;47.566;19.056;2022-08-01T06:36:56;100146.20;;;21.10
65823;BMP180;52585;47.566;19.056;2022-08-01T06:39:22;100143.00;;;21.10
65823;BMP180;52585;47.566;19.056;2022-08-01T06:41:48;100145.80;;;21.18
65823;BMP180;52585;47.566;19.056;2022-08-01T06:44:14;100147.80;;;21.20
65823;BMP180;52585;47.566;19.056;2022-08-01T06:46:42;100152.60;;;21.30
65823;BMP180;52585;47.566;19.056;2022-08-01T06:49:08;100156.60;;;21.30
65823;BMP180;52585;47.566;19.056;2022-08-01T06:51:35;100156.40;;;21.40
65823;BMP180;52585;47.566;19.056;2022-08-01T06:54:01;100157.20;;;21.50
65823;BMP180;52585;47.566;19.056;2022-08-01T06:56:27;100160.40;;;21.50
65823;BMP180;52585;47.566;19.056;2022-08-01T06:58:54;100157.80;;;21.50
65823;BMP180;52585;47.566;19.056;2022-08-01T07:01:27;100154.40;;;21.60
65823;BMP180;52585;47.566;19.056;2022-08-01T07:03:53;100156.80;;;21.60
65823;BMP180;52585;47.566;19.056;2022-08-01T07:06:22;100153.40;;;21.70
65823;BMP180;52585;47.566;19.056;2022-08-01T07:08:55;100153.20;;;21.74
65823;BMP180;52585;47.566;19.056;2022-08-01T07:11:23;100148.60;;;21.80
65823;BMP180;52585;47.566;19.056;2022-08-01T07:13:49;100149.40;;;21.90
65823;BMP180;52585;47.566;19.056;2022-08-01T07:16:17;100144.20;;;21.96
65823;BMP180;52585;47.566;19.056;2022-08-01T07:18:43;100143.60;;;22.00
65823;BMP180;52585;47.566;19.056;2022-08-01T07:21:09;100142.40;;;22.10
65823;BMP180;52585;47.566;19.056;2022-08-01T07:23:35;100137.20;;;22.18
65823;BMP180;52585;47.566;19.056;2022-08-01T07:26:03;100136.60;;;22.20
65823;BMP180;52585;47.566;19.056;2022-08-01T07:28:30;100139.60;;;22.30
65823;BMP180;52585;47.566;19.056;2022-08-01T07:30:56;100134.20;;;22.30
65823;BMP180;52585;47.566;19.056;2022-08-01T07:33:22;100131.60;;;22.40
65823;BMP180;52585;47.566;19.056;2022-08-01T07:35:51;100133.20;;;22.50
65823;BMP180;52585;47.566;19.056;2022-08-01T07:38:17;100140.40;;;22.54
65823;BMP180;52585;47.566;19.056;2022-08-01T07:40:44;100140.00;;;22.60
65823;BMP180;52585;47.566;19.056;2022-08-01T07:43:10;100143.80;;;22.66
65823;BMP180;52585;47.566;19.056;2022-08-01T07:45:46;100144.60;;;22.70
65823;BMP180;52585;47.566;19.056;2022-08-01T07:48:12;100144.00;;;22.80
65823;BMP180;52585;47.566;19.056;2022-08-01T07:50:38;100145.20;;;22.90
65823;BMP180;52585;47.566;19.056;2022-08-01T07:53:04;100141.60;;;23.00
65823;BMP180;52585;47.566;19.056;2022-08-01T07:55:31;100138.60;;;23.06
65823;BMP180;52585;47.566;19.056;2022-08-01T07:57:57;100134.80;;;23.20
65823;BMP180;52585;47.566;19.056;2022-08-01T08:00:23;100135.80;;;23.22
65823;BMP180;52585;47.566;19.056;2022-08-01T08:02:50;100134.40;;;23.30
65823;BMP180;52585;47.566;19.056;2022-08-01T08:05:15;100137.00;;;23.40
65823;BMP180;52585;47.566;19.056;2022-08-01T08:07:41;100136.00;;;23.50
65823;BMP180;52585;47.566;19.056;2022-08-01T08:10:08;100135.20;;;23.52
65823;BMP180;52585;47.566;19.056;2022-08-01T08:12:34;100136.40;;;23.60
65823;BMP180;52585;47.566;19.056;2022-08-01T08:15:01;100137.60;;;23.70
65823;BMP180;52585;47.566;19.056;2022-08-01T08:17:27;100140.20;;;23.70
65823;BMP180;52585;47.566;19.056;2022-08-01T08:19:56;100151.40;;;23.72
65823;BMP180;52585;47.566;19.056;2022-08-01T08:22:22;100150.80;;;23.70
65823;BMP180;52585;47.566;19.056;2022-08-01T08:24:48;100157.80;;;23.70
65823;BMP180;52585;47.566;19.056;2022-08-01T08:27:14;100160.00;;;23.70
65823;BMP180;52585;47.566;19.056;2022-08-01T08:29:42;100162.20;;;23.66
65823;BMP180;52585;47.566;19.056;2022-08-01T08:32:08;100167.40;;;23.62
65823;BMP180;52585;47.566;19.056;2022-08-01T08:34:35;100170.40;;;23.60
65823;BMP180;52585;47.566;19.056;2022-08-01T08:37:01;100173.20;;;23.60
65823;BMP180;52585;47.566;19.056;2022-08-01T08:39:27;100175.00;;;23.60
65823;BMP180;52585;47.566;19.056;2022-08-01T08:41:59;100175.60;;;23.52
65823;BMP180;52585;47.566;19.056;2022-08-01T08:44:25;100175.60;;;23.50
65823;BMP180;52585;47.566;19.056;2022-08-01T08:46:52;100174.00;;;23.50
65823;BMP180;52585;47.566;19.056;2022-08-01T08:49:24;100181.20;;;23.50
65823;BMP180;52585;47.566;19.056;2022-08-01T08:51:53;100183.40;;;23.40
65823;BMP180;52585;47.566;19.056;2022-08-01T08:54:22;100190.60;;;23.40
65823;BMP180;52585;47.566;19.056;2022-08-01T08:56:51;100188.60;;;23.40
65823;BMP180;52585;47.566;19.056;2022-08-01T08:59:19;100190.80;;;23.40
65823;BMP180;52585;47.566;19.056;2022-08-01T09:01:47;100191.20;;;23.38
65823;BMP180;52585;47.566;19.056;2022-08-01T09:04:13;100193.80;;;23.34
65823;BMP180;52585;47.566;19.056;2022-08-01T09:06:40;100189.60;;;23.30
65823;BMP180;52585;47.566;19.056;2022-08-01T09:09:08;100190.20;;;23.30
65823;BMP180;52585;47.566;19.056;2022-08-01T09:11:36;100192.00;;;23.30
65823;BMP180;52585;47.566;19.056;2022-08-01T09:16:44;100193.80;;;23.30
65823;BMP180;52585;47.566;19.056;2022-08-01T09:19:19;100193.80;;;23.34
65823;BMP180;52585;47.566;19.056;2022-08-01T09:22:01;100194.60;;;23.40
65823;BMP180;52585;47.566;19.056;2022-08-01T09:24:31;100194.40;;;23.38
65823;BMP180;52585;47.566;19.056;2022-08-01T09:26:58;100197.60;;;23.40
65823;BMP180;52585;47.566;19.056;2022-08-01T09:29:29;100199.20;;;23.38
65823;BMP180;52585;47.566;19.056;2022-08-01T09:31:56;100199.80;;;23.38
65823;BMP180;52585;47.566;19.056;2022-08-01T09:34:30;100198.40;;;23.40
65823;BMP180;52585;47.566;19.056;2022-08-01T09:37:02;100200.40;;;23.40
65823;BMP180;52585;47.566;19.056;2022-08-01T09:39:34;100203.00;;;23.40
65823;BMP180;52585;47.566;19.056;2022-08-01T09:42:23;100201.60;;;23.40
65823;BMP180;52585;47.566;19.056;2022-08-01T09:44:49;100198.80;;;23.44
65823;BMP180;52585;47.566;19.056;2022-08-01T09:47:16;100197.80;;;23.50
65823;BMP180;52585;47.566;19.056;2022-08-01T09:49:43;100192.60;;;23.50
65823;BMP180;52585;47.566;19.056;2022-08-01T09:52:20;100190.60;;;23.50
65823;BMP180;52585;47.566;19.056;2022-08-01T09:54:59;100188.60;;;23.60
65823;BMP180;52585;47.566;19.056;2022-08-01T09:57:27;100195.80;;;23.60
65823;BMP180;52585;47.566;19.056;2022-08-01T09:59:57;100193.20;;;23.60
65823;BMP180;52585;47.566;19.056;2022-08-01T10:02:36;100195.40;;;23.70
65823;BMP180;52585;47.566;19.056;2022-08-01T10:05:06;100190.80;;;23.70
65823;BMP180;52585;47.566;19.056;2022-08-01T10:07:33;100190.80;;;23.70
65823;BMP180;52585;47.566;19.056;2022-08-01T10:10:14;100186.40;;;23.76
65823;BMP180;52585;47.566;19.056;2022-08-01T10:12:44;100191.40;;;23.80
65823;BMP180;52585;47.566;19.056;2022-08-01T10:15:18;100191.60;;;23.80
65823;BMP180;52585;47.566;19.056;2022-08-01T10:18:07;100191.40;;;23.90
65823;BMP180;52585;47.566;19.056;2022-08-01T10:20:34;100195.60;;;23.90
65823;BMP180;52585;47.566;19.056;2022-08-01T10:23:04;100194.60;;;23.90
65823;BMP180;52585;47.566;19.056;2022-08-01T10:25:37;100189.80;;;23.92
65823;BMP180;52585;47.566;19.056;2022-08-01T10:28:14;100189.60;;;24.00
65823;BMP180;52585;47.566;19.056;2022-08-01T10:30:46;100190.40;;;24.00
65823;BMP180;52585;47.566;19.056;2022-08-01T10:33:12;100188.60;;;24.00
65823;BMP180;52585;47.566;19.056;2022-08-01T10:35:39;100181.40;;;24.00
65823;BMP180;52585;47.566;19.056;2022-08-01T10:38:07;100181.20;;;24.02
65823;BMP180;52585;47.566;19.056;2022-08-01T10:40:34;100184.40;;;24.10
65823;BMP180;52585;47.566;19.056;2022-08-01T10:43:02;100183.80;;;24.10
65823;BMP180;52585;47.566;19.056;2022-08-01T10:45:29;100175.60;;;24.10
65823;BMP180;52585;47.566;19.056;2022-08-01T10:48:12;100173.00;;;24.20
65823;BMP180;52585;47.566;19.056;2022-08-01T10:50:51;100173.80;;;24.20
65823;BMP180;52585;47.566;19.056;2022-08-01T10:53:23;100176.00;;;24.20
65823;BMP180;52585;47.566;19.056;2022-08-01T10:58:33;100172.80;;;24.20
65823;BMP180;52585;47.566;19.056;2022-08-01T11:04:04;100165.80;;;24.20
65823;BMP180;52585;47.566;19.056;2022-08-01T11:07:13;100163.40;;;24.24
65823;BMP180;52585;47.566;19.056;2022-08-01T11:10:02;100159.40;;;24.30
65823;BMP180;52585;47.566;19.056;2022-08-01T11:12:40;100159.80;;;24.30
65823;BMP180;52585;47.566;19.056;2022-08-01T11:17:46;100160.60;;;24.30
65823;BMP180;52585;47.566;19.056;2022-08-01T11:20:25;100161.80;;;24.30
65823;BMP180;52585;47.566;19.056;2022-08-01T11:26:05;100160.00;;;24.40
65823;BMP180;52585;47.566;19.056;2022-08-01T11:28:25;100155.60;;;24.40
65823;BMP180;52585;47.566;19.056;2022-08-01T11:38:42;100152.40;;;24.50
65823;BMP180;52585;47.566;19.056;2022-08-01T11:41:28;100150.20;;;24.50
65823;BMP180;52585;47.566;19.056;2022-08-01T11:44:13;100146.60;;;24.60
65823;BMP180;52585;47.566;19.056;2022-08-01T11:47:00;100148.00;;;24.60
65823;BMP180;52585;47.566;19.056;2022-08-01T11:49:32;100145.60;;;24.60
65823;BMP180;52585;47.566;19.056;2022-08-01T11:52:15;100145.60;;;24.70
65823;BMP180;52585;47.566;19.056;2022-08-01T11:57:23;100145.80;;;24.80
65823;BMP180;52585;47.566;19.056;2022-08-01T11:59:56;100141.80;;;24.80
65823;BMP180;52585;47.566;19.056;2022-08-01T12:02:25;100144.80;;;24.90
65823;BMP180;52585;47.566;19.056;2022-08-01T12:05:07;100135.00;;;24.90
65823;BMP180;52585;47.566;19.056;2022-08-01T12:07:35;100136.80;;;24.92
65823;BMP180;52585;47.566;19.056;2022-08-01T12:10:07;100136.00;;;25.00
65823;BMP180;52585;47.566;19.056;2022-08-01T12:12:35;100132.80;;;25.00
65823;BMP180;52585;47.566;19.056;2022-08-01T12:15:08;100141.00;;;25.00
65823;BMP180;52585;47.566;19.056;2022-08-01T12:17:40;100140.80;;;25.00
65823;BMP180;52585;47.566;19.056;2022-08-01T12:20:12;100145.60;;;25.02
65823;BMP180;52585;47.566;19.056;2022-08-01T12:22:38;100141.20;;;25.10
65823;BMP180;52585;47.566;19.056;2022-08-01T12:25:11;100139.60;;;25.20
65823;BMP180;52585;47.566;19.056;2022-08-01T12:27:40;100140.00;;;25.20
65823;BMP180;52585;47.566;19.056;2022-08-01T12:30:11;100137.40;;;25.30
65823;BMP180;52585;47.566;19.056;2022-08-01T12:32:40;100134.40;;;25.30
65823;BMP180;52585;47.566;19.056;2022-08-01T12:35:14;100133.00;;;25.40
65823;BMP180;52585;47.566;19.056;2022-08-01T12:37:48;100137.20;;;25.40
65823;BMP180;52585;47.566;19.056;2022-08-01T12:40:23;100136.60;;;25.40
65823;BMP180;52585;47.566;19.056;2022-08-01T12:42:55;100133.00;;;25.44
65823;BMP180;52585;47.566;19.056;2022-08-01T12:45:43;100134.20;;;25.50
65823;BMP180;52585;47.566;19.056;2022-08-01T12:48:16;100132.00;;;25.60
65823;BMP180;52585;47.566;19.056;2022-08-01T12:50:52;100129.00;;;25.60
65823;BMP180;52585;47.566;19.056;2022-08-01T12:53:19;100120.00;;;25.60
65823;BMP180;52585;47.566;19.056;2022-08-01T12:55:54;100120.20;;;25.60
65823;BMP180;52585;47.566;19.056;2022-08-01T12:58:21;100116.00;;;25.70
65823;BMP180;52585;47.566;19.056;2022-08-01T13:01:09;100116.40;;;25.70
65823;BMP180;52585;47.566;19.056;2022-08-01T13:03:35;100118.00;;;25.70
65823;BMP180;52585;47.566;19.056;2022-08-01T13:06:13;100121.40;;;25.62
65823;BMP180;52585;47.566;19.056;2022-08-01T13:08:40;100119.80;;;25.60
65823;BMP180;52585;47.566;19.056;2022-08-01T13:11:09;100117.60;;;25.60
65823;BMP180;52585;47.566;19.056;2022-08-01T13:13:51;100121.80;;;25.60
65823;BMP180;52585;47.566;19.056;2022-08-01T13:16:26;100114.20;;;25.60
65823;BMP180;52585;47.566;19.056;2022-08-01T13:18:55;100115.60;;;25.60
65823;BMP180;52585;47.566;19.056;2022-08-01T13:21:29;100116.60;;;25.60
65823;BMP180;52585;47.566;19.056;2022-08-01T13:24:12;100111.00;;;25.60
65823;BMP180;52585;47.566;19.056;2022-08-01T13:26:50;100105.20;;;25.60
65823;BMP180;52585;47.566;19.056;2022-08-01T13:29:19;100099.00;;;25.60
65823;BMP180;52585;47.566;19.056;2022-08-01T13:31:47;100102.80;;;25.60
65823;BMP180;52585;47.566;19.056;2022-08-01T13:34:13;100104.20;;;25.64
65823;BMP180;52585;47.566;19.056;2022-08-01T13:36:41;100107.20;;;25.70
65823;BMP180;52585;47.566;19.056;2022-08-01T13:39:12;100102.80;;;25.70
65823;BMP180;52585;47.566;19.056;2022-08-01T13:41:57;100097.00;;;25.80
65823;BMP180;52585;47.566;19.056;2022-08-01T13:44:24;100097.20;;;25.80
65823;BMP180;52585;47.566;19.056;2022-08-01T13:46:49;100092.40;;;25.80
65823;BMP180;52585;47.566;19.056;2022-08-01T13:49:15;100093.40;;;25.84
65823;BMP180;52585;47.566;19.056;2022-08-01T13:51:41;100087.00;;;25.90
65823;BMP180;52585;47.566;19.056;2022-08-01T13:54:07;100091.60;;;25.90
65823;BMP180;52585;47.566;19.056;2022-08-01T13:56:34;100091.40;;;25.90
65823;BMP180;52585;47.566;19.056;2022-08-01T13:59:00;100098.00;;;26.00
65823;BMP180;52585;47.566;19.056;2022-08-01T14:01:27;100100.80;;;26.00
65823;BMP180;52585;47.566;19.056;2022-08-01T14:03:53;100094.40;;;26.00
65823;BMP180;52585;47.566;19.056;2022-08-01T14:06:20;100092.80;;;26.08
65823;BMP180;52585;47.566;19.056;2022-08-01T14:08:48;100091.60;;;26.10
65823;BMP180;52585;47.566;19.056;2022-08-01T14:11:16;100094.80;;;26.10
65823;BMP180;52585;47.566;19.056;2022-08-01T14:13:45;100101.00;;;26.10
65823;BMP180;52585;47.566;19.056;2022-08-01T14:16:11;100102.20;;;26.10
65823;BMP180;52585;47.566;19.056;2022-08-01T14:18:37;100104.00;;;26.10
65823;BMP180;52585;47.566;19.056;2022-08-01T14:21:03;100102.00;;;26.10
65823;BMP180;52585;47.566;19.056;2022-08-01T14:23:30;100106.60;;;26.10
65823;BMP180;52585;47.566;19.056;2022-08-01T14:25:57;100108.80;;;26.10
65823;BMP180;52585;47.566;19.056;2022-08-01T14:28:23;100108.60;;;26.10
65823;BMP180;52585;47.566;19.056;2022-08-01T14:30:50;100112.40;;;26.10